Huvudsida
METAR-TAF:

METAR-TAF

Flygplatser :

Luganos flygplats

Lugano, Schweiz

latitud: 46-00N, longitud: 008-58E, höjd: 273 m

Aktuellt väderrapport

Denna rapport gjordes för 23 minuter sedan, klockan 21:50 UTC
Vind 3 kt från nord
Temperatur 1°C
Fuktighet 86%
Tryck 1020 hPa
Sikt: 9000 m
Få moln på en höjd av 10000 ft

METAR: LSZA 262150Z AUTO 36003KT 9000 FEW100 01/M01 Q1020

Tid: 23:13 (22:13 UTC)

Väderprognos

Denna rapport gjordes för 7 timmar och 48 minuter sedan, klockan 14:25 UTC
Prognos gäller från 26 kl. 15 UTC till 26 kl. 24 UTC
Vind 3 kt varierande vindriktning
Sikt 10 km eller mer
Få moln på en höjd av 5500 ft

TAF: LSZA 261425Z 2615/2624 VRB03KT 9999 FEW055

Aktuella väderrapporter och prognoser från 4000 flygplatser (METAR- och TAF-rapporter).

De tillgängliga stationerna syns som gula och röda prickar på kartan.

För musen över prickarna för att se namnen på stationerna.

Klicka sedan för att få väderrapporter och prognoser.

För att ändra kartan: Klicka på de gröna knapparna med ett svart kors på för att zooma in; den gröna knappen med ett streck på för att zooma ut; eller på de gröna pilarna för angränsande kartor.


METAR-TAF: